createdAt,value
2018-08-23T00:02:50.496Z,77.50
2018-08-23T00:08:06.509Z,77.70
2018-08-23T00:13:15.809Z,78.30
2018-08-23T00:18:22.058Z,78.50
2018-08-23T00:23:30.897Z,79.00
2018-08-23T00:28:41.400Z,79.30
2018-08-23T00:33:52.685Z,79.90
2018-08-23T00:38:58.975Z,80.30
2018-08-23T00:44:04.950Z,80.50
2018-08-23T00:54:26.839Z,81.60
2018-08-23T00:59:36.301Z,82.10
2018-08-23T01:04:50.266Z,82.20
2018-08-23T01:09:57.781Z,82.70
2018-08-23T01:31:48.020Z,84.00
2018-08-23T01:42:35.206Z,85.30
2018-08-23T01:47:47.531Z,85.90
2018-08-23T01:53:02.931Z,86.30
2018-08-23T01:58:10.142Z,86.50
2018-08-23T02:03:17.857Z,86.70
2018-08-23T02:08:29.368Z,87.30
2018-08-23T02:13:36.573Z,87.70
2018-08-23T02:18:56.085Z,88.40
2018-08-23T02:24:02.040Z,88.80
2018-08-23T02:29:08.031Z,88.50
2018-08-23T02:34:38.070Z,89.20
2018-08-23T02:39:47.839Z,89.80
2018-08-23T02:45:08.667Z,89.60
2018-08-23T02:50:21.197Z,89.90
2018-08-23T02:55:27.072Z,90.30
2018-08-23T03:00:39.465Z,90.50
2018-08-23T03:05:45.276Z,90.60
2018-08-23T03:10:57.911Z,90.60
2018-08-23T03:16:08.191Z,90.70
2018-08-23T03:26:53.326Z,91.40
2018-08-23T03:31:59.305Z,91.50
2018-08-23T03:37:05.488Z,91.60
2018-08-23T03:42:13.309Z,91.60
2018-08-23T03:52:54.453Z,92.20
2018-08-23T03:58:02.680Z,92.10
2018-08-23T04:03:11.446Z,92.30
2018-08-23T04:08:16.011Z,92.50
2018-08-23T04:13:20.915Z,92.60
2018-08-23T04:18:25.762Z,92.50
2018-08-23T04:23:30.270Z,92.60
2018-08-23T04:28:35.574Z,92.40
2018-08-23T04:33:40.237Z,92.60
2018-08-23T04:38:49.441Z,92.90
2018-08-23T04:43:58.967Z,92.70
2018-08-23T04:49:06.565Z,92.80
2018-08-23T04:54:11.381Z,92.70
2018-08-23T04:59:16.441Z,92.60
2018-08-23T05:04:21.067Z,92.60
2018-08-23T05:09:25.769Z,92.50
2018-08-23T05:14:30.481Z,92.40
2018-08-23T05:19:35.201Z,92.30
2018-08-23T05:24:40.420Z,92.20
2018-08-23T05:29:45.264Z,92.10
2018-08-23T05:34:50.336Z,91.90
2018-08-23T05:39:54.804Z,91.90
2018-08-23T05:44:59.407Z,91.80
2018-08-23T05:50:03.910Z,91.60
2018-08-23T05:55:08.594Z,91.50
2018-08-23T06:00:13.324Z,91.40
2018-08-23T06:05:17.905Z,91.10
2018-08-23T06:10:23.289Z,91.20
2018-08-23T06:15:27.828Z,90.90
2018-08-23T06:20:32.531Z,90.50
2018-08-23T06:25:37.045Z,90.10
2018-08-23T06:30:41.510Z,90.00
2018-08-23T06:35:47.321Z,89.50
2018-08-23T06:40:51.641Z,88.90
2018-08-23T06:45:56.410Z,88.90
2018-08-23T06:51:01.778Z,88.40
2018-08-23T06:56:06.477Z,88.50
2018-08-23T07:01:21.178Z,88.00
2018-08-23T07:06:25.706Z,87.90
2018-08-23T07:11:30.248Z,88.00
2018-08-23T07:16:34.700Z,87.20
2018-08-23T07:21:39.160Z,87.10
2018-08-23T07:26:43.660Z,87.20
2018-08-23T07:31:59.033Z,86.60
2018-08-23T07:37:17.019Z,86.20
2018-08-23T07:42:21.540Z,85.00
2018-08-23T07:47:26.451Z,83.70
2018-08-23T07:52:32.066Z,82.50
2018-08-23T07:57:37.293Z,82.40
2018-08-23T08:02:42.106Z,82.90
2018-08-23T08:07:47.717Z,83.50
2018-08-23T08:12:54.080Z,83.00
2018-08-23T08:18:06.297Z,81.50
2018-08-23T08:23:10.788Z,80.30
2018-08-23T08:28:17.694Z,78.50
2018-08-23T08:33:23.162Z,77.30
2018-08-23T08:38:28.062Z,76.60
2018-08-23T08:43:32.547Z,77.00
2018-08-23T08:48:37.420Z,76.90
2018-08-23T08:53:42.342Z,77.10
2018-08-23T08:58:46.885Z,75.40
2018-08-23T09:03:51.499Z,75.00
2018-08-23T09:08:56.009Z,74.00
2018-08-23T09:14:02.440Z,73.50
2018-08-23T09:19:07.224Z,72.00
2018-08-23T09:24:24.706Z,70.70
2018-08-23T09:29:35.776Z,69.80
2018-08-23T09:34:40.943Z,70.10
2018-08-23T09:39:46.612Z,70.80
2018-08-23T09:45:04.845Z,69.90
2018-08-23T09:50:10.865Z,67.60
2018-08-23T09:55:17.367Z,66.10
2018-08-23T10:00:30.677Z,64.60
2018-08-23T10:05:44.756Z,64.90
2018-08-23T10:10:55.103Z,66.40
2018-08-23T10:16:04.537Z,66.00
2018-08-23T10:21:09.072Z,63.80
2018-08-23T10:26:28.632Z,63.80
2018-08-23T10:31:33.069Z,63.50
2018-08-23T10:36:37.529Z,61.80
2018-08-23T10:41:42.246Z,60.00
2018-08-23T10:46:51.925Z,61.40
2018-08-23T10:51:56.447Z,61.10
2018-08-23T10:57:01.004Z,59.40
2018-08-23T11:02:05.479Z,57.90
2018-08-23T11:07:09.933Z,57.40
2018-08-23T11:12:19.811Z,55.50
2018-08-23T11:17:29.297Z,51.40
2018-08-23T11:22:39.588Z,51.70
2018-08-23T11:27:44.147Z,50.50
2018-08-23T11:32:49.192Z,49.70
2018-08-23T11:37:54.325Z,48.70
2018-08-23T11:42:58.847Z,47.60
2018-08-23T11:48:04.212Z,48.90
2018-08-23T11:53:08.771Z,48.00
2018-08-23T11:58:13.384Z,46.50
2018-08-23T12:03:18.596Z,45.20
2018-08-23T12:08:23.373Z,45.20
2018-08-23T12:13:27.982Z,45.90
2018-08-23T12:18:37.587Z,44.60
2018-08-23T12:23:42.115Z,43.80
2018-08-23T12:28:52.511Z,43.50
2018-08-23T12:33:59.602Z,42.90
2018-08-23T12:39:10.092Z,40.50
2018-08-23T12:44:14.697Z,42.10
2018-08-23T12:49:19.276Z,41.50
2018-08-23T12:54:23.795Z,40.60
2018-08-23T12:59:28.215Z,40.00
2018-08-23T13:04:32.706Z,41.90
2018-08-23T13:09:37.404Z,37.70
2018-08-23T13:14:41.838Z,37.30
2018-08-23T13:19:47.180Z,37.50
2018-08-23T13:24:56.726Z,36.00
2018-08-23T13:30:02.091Z,37.20
2018-08-23T13:35:06.887Z,35.40
2018-08-23T13:40:18.454Z,33.00
2018-08-23T13:45:23.003Z,34.00
2018-08-23T13:50:27.544Z,35.30
2018-08-23T13:55:31.846Z,37.00
2018-08-23T14:00:38.262Z,34.90
2018-08-23T14:05:42.852Z,33.80
2018-08-23T14:10:47.494Z,32.60
2018-08-23T14:15:57.843Z,33.00
2018-08-23T14:21:02.206Z,33.70
2018-08-23T14:26:07.115Z,33.10
2018-08-23T14:31:12.279Z,32.10
2018-08-23T14:36:16.664Z,35.50
2018-08-23T14:41:21.110Z,35.60
2018-08-23T14:46:30.731Z,35.00
2018-08-23T14:51:35.244Z,34.50
2018-08-23T14:56:45.680Z,35.40
2018-08-23T15:01:50.036Z,34.60
2018-08-23T15:06:54.602Z,36.60
2018-08-23T15:12:00.449Z,35.50
2018-08-23T15:17:04.755Z,35.20
2018-08-23T15:22:09.660Z,35.40
2018-08-23T15:27:14.259Z,38.10
2018-08-23T15:32:18.745Z,38.20
2018-08-23T15:37:23.159Z,35.70
2018-08-23T15:42:27.507Z,34.60
2018-08-23T15:47:31.991Z,35.40
2018-08-23T15:52:36.344Z,36.10
2018-08-23T15:57:41.164Z,37.20
2018-08-23T16:02:46.278Z,36.60
2018-08-23T16:07:50.562Z,36.60
2018-08-23T16:12:55.317Z,36.90
2018-08-23T16:18:04.923Z,36.60
2018-08-23T16:23:10.004Z,37.20
2018-08-23T16:28:14.374Z,36.30
2018-08-23T16:33:18.909Z,35.30
2018-08-23T16:38:23.446Z,34.30
2018-08-23T16:43:27.956Z,37.20
2018-08-23T16:48:32.367Z,37.70
2018-08-23T16:53:36.759Z,38.60
2018-08-23T16:58:41.359Z,40.20
2018-08-23T17:03:49.839Z,40.70
2018-08-23T17:08:54.504Z,40.50
2018-08-23T17:13:58.778Z,40.70
2018-08-23T17:19:03.287Z,41.80
2018-08-23T17:24:07.627Z,43.00
2018-08-23T17:29:12.022Z,44.30
2018-08-23T17:34:16.826Z,45.60
2018-08-23T17:39:21.344Z,47.70
2018-08-23T17:44:25.724Z,49.60
2018-08-23T17:49:30.862Z,51.10
2018-08-23T17:54:35.296Z,51.50
2018-08-23T17:59:39.700Z,52.50
2018-08-23T18:04:44.243Z,53.30
2018-08-23T18:09:48.748Z,53.90
2018-08-23T18:14:53.162Z,54.40
2018-08-23T18:19:57.548Z,55.20
2018-08-23T18:25:02.008Z,55.50
2018-08-23T18:30:06.672Z,55.90
2018-08-23T18:35:11.033Z,56.20
2018-08-23T18:40:15.321Z,56.30
2018-08-23T18:45:20.380Z,56.70
2018-08-23T18:50:24.892Z,57.30
2018-08-23T18:55:29.251Z,57.50
2018-08-23T19:00:33.721Z,58.10
2018-08-23T19:05:38.412Z,58.70
2018-08-23T19:10:42.776Z,59.30
2018-08-23T19:15:52.262Z,59.70
2018-08-23T19:20:56.631Z,60.30
2018-08-23T19:26:01.242Z,61.10
2018-08-23T19:31:05.822Z,61.20
2018-08-23T19:36:10.451Z,61.40
2018-08-23T19:41:14.817Z,62.00
2018-08-23T19:46:24.115Z,62.70
2018-08-23T19:51:28.643Z,63.30
2018-08-23T19:56:33.193Z,64.20
2018-08-23T20:01:37.695Z,64.70
2018-08-23T20:06:42.601Z,65.30
2018-08-23T20:11:47.041Z,64.70
2018-08-23T20:16:52.097Z,65.00
2018-08-23T20:21:57.050Z,65.20
2018-08-23T20:27:02.477Z,65.70
2018-08-23T20:32:06.975Z,66.30
2018-08-23T20:37:11.510Z,66.70
2018-08-23T20:42:15.881Z,67.10
2018-08-23T20:47:20.326Z,67.70
2018-08-23T20:52:24.755Z,69.30
2018-08-23T20:57:29.260Z,69.10
2018-08-23T21:02:33.726Z,70.80
2018-08-23T21:07:38.166Z,70.60
2018-08-23T21:12:42.629Z,71.30
2018-08-23T21:17:47.154Z,71.60
2018-08-23T21:22:52.198Z,72.10
2018-08-23T21:27:56.710Z,72.00
2018-08-23T21:33:01.079Z,72.00
2018-08-23T21:38:05.510Z,72.90
2018-08-23T21:43:09.954Z,73.40
2018-08-23T21:48:14.303Z,74.00
2018-08-23T21:53:19.099Z,74.70
2018-08-23T21:58:23.634Z,75.00
2018-08-23T22:03:28.846Z,75.40
2018-08-23T22:08:33.670Z,74.90
2018-08-23T22:13:38.078Z,76.10
2018-08-23T22:18:42.419Z,76.40
2018-08-23T22:23:46.767Z,76.70
2018-08-23T22:28:52.044Z,77.70
2018-08-23T22:33:57.043Z,77.60
2018-08-23T22:39:01.393Z,77.70
2018-08-23T22:44:05.989Z,78.10
2018-08-23T22:49:10.393Z,78.40
2018-08-23T22:54:14.912Z,78.80
2018-08-23T22:59:19.222Z,79.20
2018-08-23T23:04:29.368Z,79.90
2018-08-23T23:09:33.736Z,79.60
2018-08-23T23:14:38.227Z,80.00
2018-08-23T23:19:42.673Z,79.60
2018-08-23T23:24:52.115Z,79.40
2018-08-23T23:29:56.505Z,79.00
2018-08-23T23:35:00.943Z,79.10
2018-08-23T23:40:05.392Z,78.60
2018-08-23T23:45:09.893Z,77.80
2018-08-23T23:50:14.968Z,77.40
2018-08-23T23:55:19.338Z,77.00
